createdAt,value
2023-02-08T00:00:12.507Z,40.72
2023-02-08T00:00:35.390Z,41.78
2023-02-08T00:00:58.229Z,41.22
2023-02-08T00:01:22.281Z,41.55
2023-02-08T00:01:45.099Z,42.85
2023-02-08T00:02:07.872Z,43.47
2023-02-08T00:02:30.586Z,39.58
2023-02-08T00:02:53.452Z,41.33
2023-02-08T00:03:17.727Z,43.75
2023-02-08T00:03:40.451Z,41.45
2023-02-08T00:04:03.372Z,44.28
2023-02-08T00:04:26.142Z,43.30
2023-02-08T00:04:49.470Z,41.60
2023-02-08T00:05:12.193Z,38.70
2023-02-08T00:05:35.207Z,40.40
2023-02-08T00:05:57.986Z,40.67
2023-02-08T00:06:20.658Z,40.17
2023-02-08T00:06:43.376Z,39.60
2023-02-08T00:07:06.234Z,40.58
2023-02-08T00:07:29.163Z,40.30
2023-02-08T00:07:52.912Z,40.88
2023-02-08T00:08:15.776Z,41.75
2023-02-08T00:08:38.532Z,43.15
2023-02-08T00:09:01.948Z,42.72
2023-02-08T00:09:24.724Z,44.17
2023-02-08T00:09:47.535Z,42.75
2023-02-08T00:10:10.743Z,44.55
2023-02-08T00:10:33.519Z,44.08
2023-02-08T00:10:56.220Z,41.53
2023-02-08T00:11:18.895Z,39.67
2023-02-08T00:11:41.629Z,40.20
2023-02-08T00:12:04.665Z,40.35
2023-02-08T00:12:28.362Z,41.83
2023-02-08T00:12:52.350Z,42.53
2023-02-08T00:13:15.086Z,39.97
2023-02-08T00:13:38.609Z,43.45
2023-02-08T00:14:02.618Z,42.97
2023-02-08T00:14:25.394Z,42.75
2023-02-08T00:14:48.128Z,41.55
2023-02-08T00:15:11.238Z,45.03
2023-02-08T00:15:33.944Z,44.47
2023-02-08T00:15:56.702Z,39.60
2023-02-08T00:16:19.542Z,40.85
2023-02-08T00:16:42.420Z,43.78
2023-02-08T00:17:05.242Z,43.33
2023-02-08T00:17:27.942Z,42.88
2023-02-08T00:17:53.219Z,41.88
2023-02-08T00:18:17.370Z,41.92
2023-02-08T00:18:40.181Z,41.25
2023-02-08T00:19:03.071Z,43.40
2023-02-08T00:19:26.310Z,42.55
2023-02-08T00:19:49.036Z,44.38
2023-02-08T00:20:12.660Z,45.03
2023-02-08T00:20:35.446Z,43.97
2023-02-08T00:20:58.150Z,41.35
2023-02-08T00:21:20.891Z,42.97
2023-02-08T00:21:43.654Z,42.03
2023-02-08T00:22:06.489Z,42.70
2023-02-08T00:22:29.239Z,42.88
2023-02-08T00:22:53.238Z,42.10
2023-02-08T00:23:16.429Z,45.38
2023-02-08T00:23:39.156Z,42.30
2023-02-08T00:24:02.094Z,41.63
2023-02-08T00:24:24.814Z,42.75
2023-02-08T00:24:47.575Z,46.85
2023-02-08T00:25:10.552Z,43.85
2023-02-08T00:25:33.309Z,42.50
2023-02-08T00:25:56.064Z,42.05
2023-02-08T00:26:18.786Z,43.88
2023-02-08T00:26:41.515Z,41.17
2023-02-08T00:27:04.338Z,39.55
2023-02-08T00:27:27.176Z,42.80
2023-02-08T00:27:50.001Z,45.03
2023-02-08T00:28:17.162Z,43.72
2023-02-08T00:28:39.859Z,42.80
2023-02-08T00:29:02.641Z,43.97
2023-02-08T00:29:25.434Z,46.15
2023-02-08T00:29:48.279Z,43.67
2023-02-08T00:30:12.400Z,43.80
2023-02-08T00:30:38.207Z,42.75
2023-02-08T00:31:01.080Z,38.75
2023-02-08T00:31:24.154Z,40.33
2023-02-08T00:31:47.038Z,44.70
2023-02-08T00:32:10.777Z,42.58
2023-02-08T00:32:33.598Z,41.30
2023-02-08T00:32:56.492Z,41.22
2023-02-08T00:33:20.827Z,40.42
2023-02-08T00:33:43.671Z,39.72
2023-02-08T00:34:06.591Z,41.85
2023-02-08T00:34:29.466Z,37.75
2023-02-08T00:34:52.165Z,38.25
2023-02-08T00:35:14.965Z,38.15
2023-02-08T00:35:37.715Z,38.72
2023-02-08T00:36:00.515Z,39.65
2023-02-08T00:36:23.228Z,39.97
2023-02-08T00:36:45.940Z,39.42
2023-02-08T00:37:08.755Z,39.33
2023-02-08T00:37:31.519Z,39.90
2023-02-08T00:37:54.311Z,39.67
2023-02-08T00:38:17.095Z,39.90
2023-02-08T00:38:39.852Z,38.35
2023-02-08T00:39:02.607Z,40.22
2023-02-08T00:39:25.395Z,39.25
2023-02-08T00:39:48.171Z,42.60
2023-02-08T00:40:12.250Z,39.75
2023-02-08T00:40:34.974Z,40.05
2023-02-08T00:40:57.754Z,40.10
2023-02-08T00:41:20.779Z,38.60
2023-02-08T00:41:43.549Z,37.83
2023-02-08T00:42:06.362Z,38.17
2023-02-08T00:42:29.623Z,39.42
2023-02-08T00:42:52.326Z,40.58
2023-02-08T00:43:15.136Z,39.08
2023-02-08T00:43:37.850Z,40.05
2023-02-08T00:44:00.546Z,40.05
2023-02-08T00:44:23.303Z,39.65
2023-02-08T00:44:46.094Z,37.42
2023-02-08T00:45:09.939Z,38.65
2023-02-08T00:45:33.274Z,41.72
2023-02-08T00:45:55.982Z,42.05
2023-02-08T00:46:19.102Z,43.22
2023-02-08T00:46:41.888Z,40.10
2023-02-08T00:47:04.763Z,42.78
2023-02-08T00:47:27.538Z,40.33
2023-02-08T00:47:50.260Z,42.72
2023-02-08T00:48:12.966Z,42.85
2023-02-08T00:48:37.290Z,41.58
2023-02-08T00:49:00.273Z,41.38
2023-02-08T00:49:23.165Z,40.95
2023-02-08T00:49:45.923Z,40.42
2023-02-08T00:50:09.959Z,44.15
2023-02-08T00:50:32.737Z,41.92
2023-02-08T00:51:00.009Z,42.65
2023-02-08T00:51:22.746Z,39.95
2023-02-08T00:51:45.542Z,40.70
2023-02-08T00:52:08.344Z,40.90
2023-02-08T00:52:31.093Z,43.45
2023-02-08T00:52:53.881Z,42.40
2023-02-08T00:53:16.640Z,41.13
2023-02-08T00:53:40.260Z,40.55
2023-02-08T00:54:03.059Z,41.90
2023-02-08T00:54:25.785Z,41.30
2023-02-08T00:54:48.485Z,41.35
2023-02-08T00:55:11.223Z,40.65
2023-02-08T00:55:34.269Z,41.17
2023-02-08T00:55:57.019Z,41.42
2023-02-08T00:56:19.822Z,40.72
2023-02-08T00:56:42.564Z,44.22
2023-02-08T00:57:05.375Z,42.38
2023-02-08T00:57:28.201Z,43.17
2023-02-08T00:57:51.005Z,42.67
2023-02-08T00:58:13.833Z,42.33
2023-02-08T00:58:36.577Z,41.55
2023-02-08T00:58:59.369Z,46.88
2023-02-08T00:59:22.740Z,46.38
2023-02-08T00:59:45.437Z,42.10
2023-02-08T01:00:10.316Z,42.13
2023-02-08T01:00:33.100Z,43.22
2023-02-08T01:00:57.233Z,41.80
2023-02-08T01:01:20.087Z,42.03
2023-02-08T01:01:42.949Z,41.65
2023-02-08T01:02:05.823Z,41.95
2023-02-08T01:02:28.838Z,44.38
2023-02-08T01:02:51.619Z,44.15
2023-02-08T01:03:14.334Z,42.58
2023-02-08T01:03:39.898Z,42.60
2023-02-08T01:04:02.702Z,44.45
2023-02-08T01:04:25.457Z,41.20
2023-02-08T01:04:48.271Z,41.40
2023-02-08T01:05:11.207Z,40.20
2023-02-08T01:05:33.976Z,41.58
2023-02-08T01:06:00.788Z,46.33
2023-02-08T01:06:23.552Z,45.53
2023-02-08T01:06:46.329Z,46.88
2023-02-08T01:07:09.193Z,43.70
2023-02-08T01:07:32.013Z,42.78
2023-02-08T01:07:54.843Z,43.55
2023-02-08T01:08:17.529Z,43.03
2023-02-08T01:08:40.443Z,44.13
2023-02-08T01:09:03.264Z,43.38
2023-02-08T01:09:26.020Z,42.88
2023-02-08T01:09:48.694Z,42.00
2023-02-08T01:10:12.663Z,41.17
2023-02-08T01:10:35.425Z,40.60
2023-02-08T01:11:04.824Z,41.15
2023-02-08T01:11:27.535Z,43.53
2023-02-08T01:11:51.274Z,44.30
2023-02-08T01:12:13.959Z,44.88
2023-02-08T01:12:36.743Z,43.00
2023-02-08T01:12:59.422Z,40.42
2023-02-08T01:13:22.231Z,43.92
2023-02-08T01:13:45.148Z,42.20
2023-02-08T01:14:07.918Z,43.08
2023-02-08T01:14:30.578Z,43.28
2023-02-08T01:14:53.289Z,41.78
2023-02-08T01:15:16.172Z,40.08
2023-02-08T01:15:38.834Z,41.35
2023-02-08T01:16:09.655Z,42.28
2023-02-08T01:16:33.333Z,42.67
2023-02-08T01:16:56.224Z,43.30
2023-02-08T01:17:18.948Z,42.45
2023-02-08T01:17:41.768Z,43.65
2023-02-08T01:18:04.653Z,42.40
2023-02-08T01:18:27.359Z,39.63
2023-02-08T01:18:52.904Z,42.33
2023-02-08T01:19:15.702Z,42.42
2023-02-08T01:19:38.405Z,41.97
2023-02-08T01:20:01.185Z,41.38
2023-02-08T01:20:24.174Z,43.08
2023-02-08T01:20:46.903Z,42.25
2023-02-08T01:21:10.854Z,47.08
2023-02-08T01:21:35.065Z,42.63
2023-02-08T01:21:57.804Z,41.05
2023-02-08T01:22:20.667Z,41.13
2023-02-08T01:22:43.398Z,40.03
2023-02-08T01:23:06.219Z,39.70
2023-02-08T01:23:28.971Z,43.58
2023-02-08T01:23:51.805Z,41.97
2023-02-08T01:24:14.603Z,39.97
2023-02-08T01:24:37.283Z,42.13
2023-02-08T01:25:01.323Z,42.08
2023-02-08T01:25:24.060Z,43.97
2023-02-08T01:25:46.804Z,44.63
2023-02-08T01:26:10.480Z,44.55
2023-02-08T01:26:34.368Z,40.28
2023-02-08T01:26:57.149Z,37.67
2023-02-08T01:27:19.977Z,39.78
2023-02-08T01:27:42.899Z,41.45
2023-02-08T01:28:05.655Z,38.10
2023-02-08T01:28:28.378Z,38.92
2023-02-08T01:28:51.110Z,33.78
2023-02-08T01:29:13.914Z,32.22
2023-02-08T01:29:36.841Z,38.33
2023-02-08T01:29:59.520Z,40.75
2023-02-08T01:30:22.304Z,41.42
2023-02-08T01:30:45.102Z,42.80
2023-02-08T01:31:08.363Z,39.85
2023-02-08T01:31:33.197Z,40.20
2023-02-08T01:31:56.006Z,41.45
2023-02-08T01:32:18.753Z,44.60
2023-02-08T01:32:41.785Z,39.03
2023-02-08T01:33:04.524Z,38.05
2023-02-08T01:33:28.025Z,39.65
2023-02-08T01:33:52.237Z,38.90
2023-02-08T01:34:14.983Z,39.45
2023-02-08T01:34:38.067Z,40.35
2023-02-08T01:35:00.793Z,41.75
2023-02-08T01:35:23.609Z,43.20
2023-02-08T01:35:46.383Z,39.63
2023-02-08T01:36:10.099Z,42.47
2023-02-08T01:36:33.205Z,42.80
2023-02-08T01:36:55.919Z,39.25
2023-02-08T01:37:18.672Z,39.58
2023-02-08T01:37:41.364Z,40.40
2023-02-08T01:38:04.089Z,39.78
2023-02-08T01:38:26.902Z,40.15
2023-02-08T01:38:49.732Z,44.80
2023-02-08T01:39:12.693Z,42.83
2023-02-08T01:39:35.598Z,40.28
2023-02-08T01:39:58.541Z,38.38
2023-02-08T01:40:21.495Z,41.50
2023-02-08T01:40:44.543Z,41.92
2023-02-08T01:41:08.257Z,38.58
2023-02-08T01:41:31.926Z,39.60
2023-02-08T01:41:54.669Z,38.10
2023-02-08T01:42:19.090Z,40.85
2023-02-08T01:42:41.818Z,38.65
2023-02-08T01:43:06.314Z,42.00
2023-02-08T01:43:30.154Z,39.50
2023-02-08T01:44:07.764Z,38.85
2023-02-08T01:45:23.484Z,38.47
2023-02-08T01:45:46.347Z,38.72
2023-02-08T01:46:09.255Z,37.22
2023-02-08T01:46:32.447Z,38.38
2023-02-08T01:46:55.187Z,36.88
2023-02-08T01:47:17.928Z,44.22
2023-02-08T01:47:40.649Z,40.20
2023-02-08T01:48:07.070Z,37.83
2023-02-08T01:48:31.102Z,35.08
2023-02-08T01:48:55.309Z,38.60
2023-02-08T01:49:19.498Z,39.20
2023-02-08T01:49:42.269Z,36.22
2023-02-08T01:50:05.195Z,35.17
2023-02-08T01:50:30.906Z,37.42
2023-02-08T01:50:55.763Z,39.00
2023-02-08T01:51:20.446Z,34.97
2023-02-08T01:51:44.801Z,38.88
2023-02-08T01:52:10.333Z,36.83
2023-02-08T01:52:33.071Z,39.70
2023-02-08T01:52:55.848Z,37.88
2023-02-08T01:53:18.568Z,37.35
2023-02-08T01:53:42.388Z,36.38
2023-02-08T01:54:05.945Z,36.95
2023-02-08T01:54:36.861Z,38.95
2023-02-08T01:55:01.132Z,36.60
2023-02-08T01:55:26.728Z,37.40
2023-02-08T01:55:51.513Z,40.22
2023-02-08T01:56:16.014Z,37.20
2023-02-08T01:56:41.468Z,36.67
2023-02-08T01:57:04.268Z,36.17
2023-02-08T01:57:26.977Z,37.75
2023-02-08T01:57:52.507Z,37.17
2023-02-08T01:58:15.286Z,37.85
2023-02-08T01:58:41.387Z,36.47
2023-02-08T01:59:07.065Z,39.08
2023-02-08T01:59:32.530Z,36.30
2023-02-08T01:59:56.494Z,36.80
2023-02-08T02:00:22.580Z,39.45
2023-02-08T02:00:45.678Z,37.85
2023-02-08T02:01:08.612Z,39.17
2023-02-08T02:01:31.621Z,39.28
2023-02-08T02:01:54.751Z,36.60
2023-02-08T02:02:19.538Z,35.88
2023-02-08T02:02:42.366Z,36.15
2023-02-08T02:03:05.295Z,39.92
2023-02-08T02:03:28.114Z,39.17
2023-02-08T02:03:50.891Z,38.63
2023-02-08T02:04:15.118Z,36.70
2023-02-08T02:04:38.018Z,36.78
2023-02-08T02:05:00.808Z,38.20
2023-02-08T02:05:25.438Z,36.35
2023-02-08T02:05:50.092Z,35.65
2023-02-08T02:06:14.420Z,38.75
2023-02-08T02:06:39.241Z,38.60
2023-02-08T02:07:02.068Z,36.53
2023-02-08T02:07:27.056Z,37.92
2023-02-08T02:07:49.955Z,38.80
2023-02-08T02:08:12.701Z,36.42
2023-02-08T02:08:35.411Z,37.53
2023-02-08T02:09:03.377Z,39.40
2023-02-08T02:09:28.757Z,39.38
2023-02-08T02:09:53.288Z,39.03
2023-02-08T02:10:18.767Z,36.38
2023-02-08T02:10:42.598Z,37.58
2023-02-08T02:11:05.687Z,37.97
2023-02-08T02:11:28.816Z,39.38
2023-02-08T02:11:51.867Z,37.28
2023-02-08T02:12:14.593Z,36.95
2023-02-08T02:12:38.114Z,36.97
2023-02-08T02:13:05.317Z,38.05
2023-02-08T02:13:28.180Z,36.42
2023-02-08T02:13:51.541Z,35.08
2023-02-08T02:14:14.755Z,36.70
2023-02-08T02:14:38.255Z,35.00
2023-02-08T02:15:01.309Z,37.63
2023-02-08T02:15:24.021Z,35.05
2023-02-08T02:15:46.907Z,34.90
2023-02-08T02:16:09.642Z,36.85
2023-02-08T02:16:32.548Z,39.47
2023-02-08T02:16:55.315Z,38.25
2023-02-08T02:17:18.865Z,39.25
2023-02-08T02:17:41.675Z,37.50
2023-02-08T02:18:05.951Z,35.40
2023-02-08T02:18:29.806Z,37.03
2023-02-08T02:18:52.513Z,35.80
2023-02-08T02:19:20.966Z,35.40
2023-02-08T02:19:49.510Z,39.45
2023-02-08T02:20:16.332Z,36.13
2023-02-08T02:21:11.681Z,37.60
2023-02-08T02:21:50.749Z,35.20
2023-02-08T02:22:25.627Z,38.30
2023-02-08T02:23:25.082Z,34.53
2023-02-08T02:24:12.580Z,33.35
2023-02-08T02:25:02.292Z,35.03
2023-02-08T02:25:53.476Z,32.83
2023-02-08T02:26:33.429Z,34.85
2023-02-08T02:27:19.726Z,33.78
2023-02-08T02:27:52.409Z,34.53
2023-02-08T02:28:28.498Z,36.20
2023-02-08T02:29:25.931Z,39.20
2023-02-08T02:30:21.255Z,35.72
2023-02-08T02:31:18.852Z,35.67
2023-02-08T02:31:56.221Z,36.20
2023-02-08T02:32:30.572Z,37.85
2023-02-08T02:32:58.733Z,34.47
2023-02-08T02:33:32.660Z,34.83
2023-02-08T02:34:00.481Z,35.95
2023-02-08T02:34:26.338Z,33.40
2023-02-08T02:34:50.636Z,35.58
2023-02-08T02:35:15.948Z,34.78
2023-02-08T02:35:42.822Z,34.67
2023-02-08T02:36:09.162Z,33.78
2023-02-08T02:36:35.882Z,36.38
2023-02-08T02:37:02.663Z,35.88
2023-02-08T02:37:31.584Z,38.00
2023-02-08T02:37:58.862Z,35.45
2023-02-08T02:38:27.718Z,36.88
2023-02-08T02:39:02.902Z,31.95
2023-02-08T02:39:29.612Z,36.45
2023-02-08T02:39:55.902Z,33.38
2023-02-08T02:40:22.089Z,35.08
2023-02-08T02:40:50.427Z,36.85
2023-02-08T02:41:37.762Z,37.13
2023-02-08T02:42:24.925Z,38.53
2023-02-08T02:43:12.183Z,38.25
2023-02-08T02:43:42.905Z,35.83
2023-02-08T02:44:07.719Z,33.78
2023-02-08T02:44:35.367Z,34.00
2023-02-08T02:45:04.753Z,34.67
2023-02-08T02:45:30.602Z,33.75
2023-02-08T02:45:56.891Z,35.80
2023-02-08T02:46:24.453Z,34.35
2023-02-08T02:46:49.779Z,35.45
2023-02-08T02:47:19.398Z,35.15
2023-02-08T02:47:45.694Z,36.00
2023-02-08T02:48:11.682Z,36.97
2023-02-08T02:48:39.053Z,37.15
2023-02-08T02:49:04.421Z,39.17
2023-02-08T02:49:29.380Z,36.35
2023-02-08T02:49:53.120Z,37.35
2023-02-08T02:50:19.857Z,34.50
2023-02-08T02:50:43.861Z,38.65
2023-02-08T02:51:09.126Z,39.67
2023-02-08T02:51:35.382Z,38.85
2023-02-08T02:51:59.170Z,38.65
2023-02-08T02:52:27.813Z,40.25
2023-02-08T02:52:54.426Z,38.00
2023-02-08T02:53:20.451Z,35.53
2023-02-08T02:53:47.860Z,37.03
2023-02-08T02:54:13.897Z,39.42
2023-02-08T02:54:39.027Z,38.70
2023-02-08T02:55:03.621Z,40.03
2023-02-08T02:55:26.413Z,39.67
2023-02-08T02:55:50.743Z,37.53
2023-02-08T02:56:16.011Z,39.67
2023-02-08T02:56:40.008Z,42.00
2023-02-08T02:57:06.113Z,42.00
2023-02-08T02:57:30.394Z,43.05
2023-02-08T02:57:53.927Z,43.08
2023-02-08T02:58:19.242Z,41.80
2023-02-08T02:58:41.990Z,39.28
2023-02-08T02:59:06.497Z,39.60
2023-02-08T02:59:29.265Z,39.33
2023-02-08T02:59:52.030Z,40.42
2023-02-08T03:00:19.742Z,40.05
2023-02-08T03:00:42.633Z,42.80
2023-02-08T03:01:05.852Z,41.78
2023-02-08T03:01:30.333Z,41.08
2023-02-08T03:01:54.630Z,41.38
2023-02-08T03:02:18.748Z,42.67
2023-02-08T03:02:42.270Z,42.03
2023-02-08T03:03:07.430Z,42.90
2023-02-08T03:03:32.722Z,42.80
2023-02-08T03:03:55.753Z,43.05
2023-02-08T03:04:19.637Z,41.45
2023-02-08T03:04:50.100Z,43.35
2023-02-08T03:05:12.788Z,44.20
2023-02-08T03:05:35.540Z,44.60
2023-02-08T03:06:00.814Z,44.45
2023-02-08T03:06:29.464Z,43.97
2023-02-08T03:06:58.681Z,41.28
2023-02-08T03:07:54.558Z,43.45
2023-02-08T03:08:24.648Z,45.45
2023-02-08T03:09:17.560Z,45.40
2023-02-08T03:09:49.521Z,41.60
2023-02-08T03:10:29.213Z,42.78
2023-02-08T03:11:01.150Z,43.83
2023-02-08T03:11:26.034Z,41.35
2023-02-08T03:11:53.059Z,44.65
2023-02-08T03:12:22.874Z,43.53
2023-02-08T03:12:48.976Z,43.72
2023-02-08T03:13:24.354Z,43.42
2023-02-08T03:14:09.614Z,44.25
2023-02-08T03:14:36.564Z,44.78
2023-02-08T03:15:01.608Z,45.38
2023-02-08T03:15:29.090Z,45.83
2023-02-08T03:15:58.204Z,43.60
2023-02-08T03:16:24.695Z,43.55
2023-02-08T03:17:01.175Z,43.55
2023-02-08T03:17:33.999Z,46.65
2023-02-08T03:18:04.827Z,44.75
2023-02-08T03:18:31.176Z,43.90
2023-02-08T03:19:01.780Z,44.47
2023-02-08T03:19:28.179Z,44.80
2023-02-08T03:19:54.491Z,47.40
2023-02-08T03:20:19.017Z,50.35
2023-02-08T03:20:43.122Z,47.47
2023-02-08T03:21:10.604Z,46.58
2023-02-08T03:21:38.315Z,46.92
2023-02-08T03:22:03.305Z,47.05
2023-02-08T03:22:27.575Z,46.67
2023-02-08T03:22:55.045Z,51.05
2023-02-08T03:23:20.994Z,48.05
2023-02-08T03:23:48.115Z,47.90
2023-02-08T03:24:23.423Z,49.80
2023-02-08T03:24:50.595Z,49.65
2023-02-08T03:25:17.536Z,53.65
2023-02-08T03:25:43.120Z,51.65
2023-02-08T03:26:08.125Z,49.20
2023-02-08T03:26:34.638Z,50.80
2023-02-08T03:27:00.512Z,50.50
2023-02-08T03:27:28.145Z,52.05
2023-02-08T03:27:56.509Z,52.50
2023-02-08T03:28:23.330Z,56.03
2023-02-08T03:28:51.951Z,50.92
2023-02-08T03:29:17.110Z,43.53
2023-02-08T03:29:44.020Z,41.15
2023-02-08T03:30:09.647Z,41.40
2023-02-08T03:30:36.102Z,44.78
2023-02-08T03:31:02.075Z,38.85
2023-02-08T03:31:26.997Z,35.53
2023-02-08T03:31:51.995Z,32.72
2023-02-08T03:32:17.624Z,34.78
2023-02-08T03:32:43.231Z,34.13
2023-02-08T03:33:07.530Z,30.02
2023-02-08T03:33:33.506Z,34.45
2023-02-08T03:33:58.410Z,32.28
2023-02-08T03:34:24.025Z,35.35
2023-02-08T03:34:48.172Z,32.80
2023-02-08T03:35:11.773Z,36.92
2023-02-08T03:35:37.302Z,34.22
2023-02-08T03:36:02.035Z,33.30
2023-02-08T03:36:26.306Z,30.83
2023-02-08T03:36:51.280Z,31.58
2023-02-08T03:37:15.535Z,33.40
2023-02-08T03:37:39.885Z,34.13
2023-02-08T03:38:04.843Z,30.80
2023-02-08T03:38:29.856Z,32.00
2023-02-08T03:38:52.630Z,34.20
2023-02-08T03:39:18.461Z,32.53
2023-02-08T03:39:41.270Z,30.25
2023-02-08T03:40:06.717Z,30.33
2023-02-08T03:40:32.080Z,32.42
2023-02-08T03:40:58.262Z,28.95
2023-02-08T03:41:26.531Z,30.92
2023-02-08T03:41:50.426Z,31.83
2023-02-08T03:42:15.610Z,29.52
2023-02-08T03:42:38.292Z,31.05
2023-02-08T03:43:03.456Z,30.75
2023-02-08T03:43:27.876Z,32.00
2023-02-08T03:43:52.363Z,29.35
2023-02-08T03:44:16.646Z,29.38
2023-02-08T03:44:40.799Z,30.67
2023-02-08T03:45:05.937Z,28.08
2023-02-08T03:45:31.514Z,30.17
2023-02-08T03:45:55.694Z,30.95
2023-02-08T03:46:21.386Z,30.70
2023-02-08T03:46:47.122Z,29.55
2023-02-08T03:47:12.465Z,32.17
2023-02-08T03:47:36.666Z,31.75
2023-02-08T03:48:02.362Z,29.40
2023-02-08T03:48:25.118Z,30.25
2023-02-08T03:48:52.184Z,29.45
2023-02-08T03:49:16.566Z,27.58
2023-02-08T03:49:41.732Z,28.55
2023-02-08T03:50:07.817Z,30.20
2023-02-08T03:50:31.232Z,29.42
2023-02-08T03:50:54.313Z,27.30
2023-02-08T03:51:17.035Z,29.00
2023-02-08T03:51:39.866Z,29.40
2023-02-08T03:52:04.848Z,28.08
2023-02-08T03:52:27.857Z,28.77
2023-02-08T03:52:51.157Z,28.05
2023-02-08T03:53:13.938Z,26.17
2023-02-08T03:53:39.452Z,29.00
2023-02-08T03:54:03.077Z,30.63
2023-02-08T03:54:26.997Z,28.13
2023-02-08T03:54:51.262Z,28.02
2023-02-08T03:55:16.354Z,27.83
2023-02-08T03:55:39.075Z,29.52
2023-02-08T03:56:02.516Z,29.90
2023-02-08T03:56:29.204Z,28.27
2023-02-08T03:56:55.092Z,31.15
2023-02-08T03:57:19.719Z,31.77
2023-02-08T03:57:46.896Z,31.10
2023-02-08T03:58:11.910Z,30.65
2023-02-08T03:58:37.254Z,30.98
2023-02-08T03:59:01.657Z,32.15
2023-02-08T03:59:26.738Z,35.70
2023-02-08T03:59:52.963Z,32.67
2023-02-08T04:00:17.308Z,32.65
2023-02-08T04:00:41.052Z,29.52
2023-02-08T04:01:06.350Z,32.72
2023-02-08T04:01:31.006Z,30.98
2023-02-08T04:01:55.953Z,30.60
2023-02-08T04:02:20.078Z,30.92
2023-02-08T04:02:44.619Z,30.80
2023-02-08T04:03:11.068Z,29.48
2023-02-08T04:03:33.822Z,27.40
2023-02-08T04:03:56.517Z,31.05
2023-02-08T04:04:19.271Z,29.85
2023-02-08T04:04:43.917Z,30.77
2023-02-08T04:05:07.061Z,31.70
2023-02-08T04:05:29.872Z,29.65
2023-02-08T04:05:53.702Z,30.38
2023-02-08T04:06:16.758Z,32.17
2023-02-08T04:06:39.537Z,31.40
2023-02-08T04:07:02.343Z,31.98
2023-02-08T04:07:25.151Z,28.85
2023-02-08T04:07:47.835Z,30.52
2023-02-08T04:08:10.677Z,30.65
2023-02-08T04:08:33.466Z,31.27
2023-02-08T04:08:56.229Z,32.88
2023-02-08T04:09:18.931Z,31.10
2023-02-08T04:09:41.948Z,29.85
2023-02-08T04:10:04.902Z,29.42
2023-02-08T04:10:27.915Z,30.05
2023-02-08T04:10:50.626Z,29.85
2023-02-08T04:11:13.431Z,30.75
2023-02-08T04:11:36.491Z,31.73
2023-02-08T04:11:59.252Z,31.67
2023-02-08T04:12:22.001Z,32.60
2023-02-08T04:12:44.984Z,30.95
2023-02-08T04:13:07.773Z,33.13
2023-02-08T04:13:30.488Z,30.52
2023-02-08T04:13:53.227Z,30.75
2023-02-08T04:14:16.221Z,31.15
2023-02-08T04:14:38.903Z,31.98
2023-02-08T04:15:01.627Z,31.75
2023-02-08T04:15:24.374Z,27.80
2023-02-08T04:15:47.134Z,28.95
2023-02-08T04:16:10.398Z,29.33
2023-02-08T04:16:33.158Z,30.67
2023-02-08T04:16:55.871Z,31.65
2023-02-08T04:17:18.606Z,29.73
2023-02-08T04:17:41.430Z,30.67
2023-02-08T04:18:04.369Z,31.15
2023-02-08T04:18:28.666Z,28.33
2023-02-08T04:18:51.380Z,28.92
2023-02-08T04:19:14.445Z,29.05
2023-02-08T04:19:37.212Z,31.50
2023-02-08T04:20:00.585Z,29.50
2023-02-08T04:20:23.378Z,27.98
2023-02-08T04:20:46.070Z,28.52
2023-02-08T04:21:08.816Z,28.83
2023-02-08T04:21:31.568Z,26.95
2023-02-08T04:21:54.250Z,29.27
2023-02-08T04:22:17.065Z,29.33
2023-02-08T04:22:39.785Z,31.60
2023-02-08T04:23:02.584Z,30.42
2023-02-08T04:23:25.369Z,27.20
2023-02-08T04:23:48.106Z,29.02
2023-02-08T04:24:10.900Z,31.25
2023-02-08T04:24:33.704Z,30.50
2023-02-08T04:24:56.833Z,27.75
2023-02-08T04:25:19.597Z,30.65
2023-02-08T04:25:42.367Z,28.58
2023-02-08T04:26:07.875Z,28.13
2023-02-08T04:26:30.532Z,27.17
2023-02-08T04:26:53.288Z,28.40
2023-02-08T04:27:16.066Z,27.02
2023-02-08T04:27:38.721Z,28.17
2023-02-08T04:28:01.514Z,28.92
2023-02-08T04:28:24.296Z,29.02
2023-02-08T04:28:47.067Z,26.70
2023-02-08T04:29:09.756Z,27.10
2023-02-08T04:29:32.608Z,29.50
2023-02-08T04:29:55.343Z,27.20
2023-02-08T04:30:18.378Z,26.40
2023-02-08T04:30:41.716Z,28.00
2023-02-08T04:31:05.236Z,28.05
2023-02-08T04:31:28.284Z,28.40
2023-02-08T04:31:51.111Z,26.20
2023-02-08T04:32:13.940Z,26.50
2023-02-08T04:32:36.652Z,27.60
2023-02-08T04:33:00.202Z,27.90
2023-02-08T04:33:22.962Z,27.65
2023-02-08T04:33:47.216Z,26.90
2023-02-08T04:34:10.008Z,24.98
2023-02-08T04:34:32.832Z,26.00
2023-02-08T04:34:55.596Z,27.55
2023-02-08T04:35:18.533Z,27.33
2023-02-08T04:35:41.626Z,28.00
2023-02-08T04:36:04.981Z,28.10
2023-02-08T04:36:27.755Z,28.75
2023-02-08T04:36:50.515Z,30.60
2023-02-08T04:37:13.209Z,28.83
2023-02-08T04:37:36.078Z,30.30
2023-02-08T04:37:58.896Z,26.50
2023-02-08T04:38:21.636Z,26.65
2023-02-08T04:38:44.342Z,27.17
2023-02-08T04:39:07.245Z,26.77
2023-02-08T04:39:30.022Z,29.25
2023-02-08T04:39:52.833Z,27.83
2023-02-08T04:40:15.665Z,27.10
2023-02-08T04:40:38.689Z,28.73
2023-02-08T04:41:01.875Z,24.30
2023-02-08T04:41:25.063Z,25.50
2023-02-08T04:41:47.768Z,26.20
2023-02-08T04:42:10.554Z,28.50
2023-02-08T04:42:33.555Z,26.13
2023-02-08T04:42:56.257Z,25.73
2023-02-08T04:43:19.126Z,22.00
2023-02-08T04:43:41.900Z,21.80
2023-02-08T04:44:04.731Z,22.73
2023-02-08T04:44:27.622Z,23.25
2023-02-08T04:44:50.421Z,22.60
2023-02-08T04:45:13.224Z,23.85
2023-02-08T04:45:35.956Z,22.35
2023-02-08T04:45:59.230Z,23.27
2023-02-08T04:46:21.976Z,22.48
2023-02-08T04:46:44.994Z,24.35
2023-02-08T04:47:07.801Z,22.10
2023-02-08T04:47:30.492Z,24.13
2023-02-08T04:47:54.127Z,23.13
2023-02-08T04:48:16.900Z,23.83
2023-02-08T04:48:39.641Z,23.00
2023-02-08T04:49:03.775Z,23.13
2023-02-08T04:49:26.585Z,22.85
2023-02-08T04:49:49.303Z,21.85
2023-02-08T04:50:14.919Z,25.13
2023-02-08T04:50:37.792Z,24.10
2023-02-08T04:51:00.996Z,21.75
2023-02-08T04:51:24.036Z,20.92
2023-02-08T04:51:49.336Z,24.00
2023-02-08T04:52:12.102Z,22.58
2023-02-08T04:52:35.073Z,22.27
2023-02-08T04:52:57.822Z,21.15
2023-02-08T04:53:21.533Z,21.42
2023-02-08T04:53:44.455Z,23.75
2023-02-08T04:54:07.261Z,22.00
2023-02-08T04:54:30.302Z,22.00
2023-02-08T04:54:53.017Z,23.23
2023-02-08T04:55:15.830Z,21.95
2023-02-08T04:55:38.827Z,21.58
2023-02-08T04:56:01.610Z,20.88
2023-02-08T04:56:24.349Z,21.67
2023-02-08T04:56:47.066Z,21.92
2023-02-08T04:57:10.593Z,22.15
2023-02-08T04:57:33.303Z,22.90
2023-02-08T04:57:56.123Z,23.52
2023-02-08T04:58:19.071Z,22.42
2023-02-08T04:58:41.830Z,23.52
2023-02-08T04:59:04.556Z,22.38
2023-02-08T04:59:27.442Z,20.58
2023-02-08T04:59:50.276Z,23.48
2023-02-08T05:00:14.253Z,23.48
2023-02-08T05:00:37.091Z,21.50
2023-02-08T05:00:59.756Z,22.30
2023-02-08T05:01:22.537Z,22.88
2023-02-08T05:01:45.449Z,20.77
2023-02-08T05:02:08.183Z,21.52
2023-02-08T05:02:30.946Z,22.50
2023-02-08T05:02:54.597Z,22.52
2023-02-08T05:03:17.311Z,23.15
2023-02-08T05:03:40.111Z,22.95
2023-02-08T05:04:04.828Z,21.55
2023-02-08T05:04:27.580Z,21.50
2023-02-08T05:04:50.485Z,24.38
2023-02-08T05:05:13.378Z,23.40
2023-02-08T05:05:36.310Z,23.25
2023-02-08T05:05:59.041Z,21.52
2023-02-08T05:06:21.879Z,22.35
2023-02-08T05:06:46.849Z,22.45
2023-02-08T05:07:10.953Z,22.45
2023-02-08T05:07:33.770Z,20.52
2023-02-08T05:07:56.535Z,20.85
2023-02-08T05:08:19.242Z,23.30
2023-02-08T05:08:42.111Z,22.55
2023-02-08T05:09:07.231Z,23.98
2023-02-08T05:09:30.051Z,21.33
2023-02-08T05:09:52.818Z,20.85
2023-02-08T05:10:15.628Z,24.08
2023-02-08T05:10:38.459Z,21.52
2023-02-08T05:11:01.354Z,22.35
2023-02-08T05:11:26.684Z,23.05
2023-02-08T05:11:49.453Z,21.52
2023-02-08T05:12:12.235Z,23.27
2023-02-08T05:12:35.028Z,24.05
2023-02-08T05:12:57.813Z,21.52
2023-02-08T05:13:20.539Z,20.38
2023-02-08T05:13:43.306Z,21.98
2023-02-08T05:14:06.180Z,23.70
2023-02-08T05:14:28.981Z,21.92
2023-02-08T05:14:51.759Z,22.30
2023-02-08T05:15:14.528Z,21.67
2023-02-08T05:15:38.394Z,21.15
2023-02-08T05:16:01.115Z,19.52
2023-02-08T05:16:23.942Z,19.75
2023-02-08T05:16:46.723Z,22.77
2023-02-08T05:17:09.454Z,20.17
2023-02-08T05:17:32.771Z,21.15
2023-02-08T05:17:55.518Z,21.73